Terminal Aerodrome Forecast
Issued by NWS Upton, NY

Home | Current Version | Previous Version | Text Only | Print | Product List | Glossary On
Versions: 1 2 3 4 5 6 7 8 9 10 11 12 13 14 15 16 17 18 19 20 21 22 23 24 25 26 27 28 29 30 31 32
000
FTUS41 KOKX 230532
TAFEWR
TAF
KEWR 230532Z 2306/2412 VRB04KT P6SM BKN250
     FM230800 VRB03KT 5SM BR SCT005 BKN250
     FM231000 VRB02KT 2SM BR BKN005
     FM231500 22006KT 5SM BR BKN010 BKN025
     FM231800 20007KT P6SM BKN035
     FM240100 VRB03KT P6SM OVC035
     FM240600 VRB03KT 4SM BR FEW005 OVC020
     FM240900 VRB03KT 1SM BR BKN005=

USA.gov is the U.S. government's official web portal to all federal, state and local government web resources and services.